Terminal Aerodrome Forecast
Issued by NWS Quad Cities IA IL

Home | Current Version | Previous Version | Text Only | Print | Product List | Glossary On
Versions: 1 2 3 4 5 6 7 8 9 10 11 12 13 14 15 16 17 18 19 20 21 22 23 24 25
000
FTUS43 KDVN 301753
TAFMLI
TAF
KMLI 301753Z 3018/3118 VRB03KT P6SM SCT025
      TEMPO 3018/3022 BKN025
     FM310600 00000KT 2SM BR FEW002
      TEMPO 3109/3112 1/2SM FG BKN002
     FM311600 16008KT 6SM BR SCT006 BKN035=

USA.gov is the U.S. government's official web portal to all federal, state and local government web resources and services.